Qashlu, Yemen
Current Conditions -  °F | °C
As of 12:00 AM on Wednesday 28 Jan 2015 (Local Time) from OYSQ Reporting Station
Scattered Clouds Scattered Clouds  
Wind Chill: 25°   Ceiling: Unl
Heat Index: 26°   Visibility: 6mi
Dew Point: 20°   Wind: 18mph
Humidity: 74%   Direction: 70°ENE
Pressure: 30"   Gusts: NA
Location:  12.61°N, 53.86°E
Report Text: OYSQ 272100Z 07016KT 9999 SCT018 25/20 Q1016
Loading
Personal Weather Stations






























Interactive Weather Map New forecast layout! Learn more

10-Day Weather Forecast

Advertisements
Track Severe Weather on mobile